Impacts TAF Board
For situational awareness. Not to be used for flight planning purposes.
IDs:

KPDX - Portland Intl Arpt, OR, US

Issued at 1127 UTC 20 Jul 2019
Updated at 1325 UTC 20 Jul 2019
Potential Impact None Slight Moderate High
Time1253Z 20/14Z 20/15Z 20/16Z 20/17Z 20/18Z 20/19Z 20/20Z 20/21Z 20/22Z 20/23Z 21/00Z 21/01Z 21/02Z>>
Type OBS PRVL PRVL PRVL PRVL PRVL PRVL PRVL PRVL PRVL PRVL PRVL PRVL PRVL
VIS 10 >6 >6 >6 >6 >6 >6 >6 >6 >6 >6 >6 >6 >6
CIG -- -- -- -- -- -- -- -- -- -- -- -- -- --
Cover CLR SKC SKC SKC SKC SKC SKC FEW FEW FEW FEW FEW FEW FEW
FltCat VFR VFR VFR VFR VFR VFR VFR VFR VFR VFR VFR VFR VFR VFR
WX -- -- -- -- -- -- -- -- -- -- -- -- -- --
WDir 50 VRB VRB VRB VRB VRB VRB 320 320 320 320 320 320 320
WSpd 3 3 3 3 3 3 3 11 11 11 11 11 11 11
WGst -- -- -- -- -- -- -- 20 20 20 20 20 20 20
Raw TAF
KPDX 201127Z 2012/2112 VRB03KT P6SM SKC
  FM202000 32011G20KT P6SM FEW300
  FM210500 31004KT P6SM SKC


Raw METAR
KPDX 201253Z 05003KT 10SM CLR 14/09 A3007 RMK AO2 SLP182 T01390094
KPDX 201153Z 00000KT 10SM CLR 14/10 A3007 RMK AO2 SLP181 T01440100 10189 20144 53002
KPDX 201053Z 35004KT 10SM CLR 15/10 A3006 RMK AO2 SLP179 T01500100

METAR Board
Radar Display
Forecast Discussion
For situational awareness. Not to be used for flight planning purposes.